createdAt,value
2023-04-18T00:00:14.757Z,7.39
2023-04-18T00:01:14.722Z,7.29
2023-04-18T00:02:14.768Z,7.29
2023-04-18T00:03:14.954Z,7.25
2023-04-18T00:04:15.182Z,7.15
2023-04-18T00:05:14.705Z,7.14
2023-04-18T00:06:14.679Z,7.15
2023-04-18T00:07:14.641Z,7.21
2023-04-18T00:08:14.662Z,7.25
2023-04-18T00:09:14.731Z,7.31
2023-04-18T00:10:14.662Z,7.29
2023-04-18T00:11:14.607Z,7.25
2023-04-18T00:12:14.613Z,7.32
2023-04-18T00:13:14.610Z,7.35
2023-04-18T00:14:14.938Z,7.36
2023-04-18T00:15:14.587Z,7.36
2023-04-18T00:16:14.652Z,7.38
2023-04-18T00:17:14.588Z,7.38
2023-04-18T00:18:14.561Z,7.39
2023-04-18T00:19:14.520Z,7.36
2023-04-18T00:20:14.550Z,7.35
2023-04-18T00:21:14.509Z,7.32
2023-04-18T00:22:14.511Z,7.24
2023-04-18T00:23:14.492Z,7.20
2023-04-18T00:24:14.644Z,7.15
2023-04-18T00:25:14.457Z,7.11
2023-04-18T00:26:14.487Z,7.13
2023-04-18T00:27:14.431Z,7.14
2023-04-18T00:28:14.466Z,7.14
2023-04-18T00:29:14.420Z,7.15
2023-04-18T00:30:14.430Z,7.17
2023-04-18T00:31:14.427Z,7.13
2023-04-18T00:32:14.425Z,7.15
2023-04-18T00:33:14.376Z,7.21
2023-04-18T00:34:14.666Z,7.23
2023-04-18T00:35:14.376Z,7.23
2023-04-18T00:36:14.372Z,7.24
2023-04-18T00:37:14.364Z,7.23
2023-04-18T00:38:14.365Z,7.25
2023-04-18T00:39:14.312Z,7.29
2023-04-18T00:40:14.330Z,7.25
2023-04-18T00:41:14.290Z,7.33
2023-04-18T00:42:14.301Z,7.31
2023-04-18T00:43:14.394Z,7.29
2023-04-18T00:44:14.616Z,7.24
2023-04-18T00:45:14.267Z,7.28
2023-04-18T00:46:14.299Z,7.25
2023-04-18T00:47:14.234Z,7.20
2023-04-18T00:48:14.256Z,7.21
2023-04-18T00:49:14.238Z,7.21
2023-04-18T00:50:14.238Z,7.17
2023-04-18T00:51:14.197Z,7.18
2023-04-18T00:52:14.198Z,7.24
2023-04-18T00:53:14.173Z,7.31
2023-04-18T00:54:14.511Z,7.31
2023-04-18T00:55:14.147Z,7.31
2023-04-18T00:56:14.189Z,7.32
2023-04-18T00:57:14.121Z,7.35
2023-04-18T00:58:14.134Z,7.38
2023-04-18T00:59:14.294Z,7.36
2023-04-18T01:00:14.118Z,7.40
2023-04-18T01:01:14.150Z,7.40
2023-04-18T01:02:14.125Z,7.40
2023-04-18T01:03:14.176Z,7.39
2023-04-18T01:04:14.575Z,7.38
2023-04-18T01:05:14.063Z,7.40
2023-04-18T01:06:14.078Z,7.43
2023-04-18T01:07:14.016Z,7.50
2023-04-18T01:08:14.035Z,7.53
2023-04-18T01:09:14.075Z,7.56
2023-04-18T01:10:14.037Z,7.56
2023-04-18T01:11:13.984Z,7.60
2023-04-18T01:12:14.003Z,7.67
2023-04-18T01:13:13.959Z,7.69
2023-04-18T01:14:14.176Z,7.70
2023-04-18T01:15:13.938Z,7.73
2023-04-18T01:16:14.042Z,7.69
2023-04-18T01:17:13.939Z,7.67
2023-04-18T01:18:13.929Z,7.66
2023-04-18T01:19:13.897Z,7.58
2023-04-18T01:20:13.915Z,7.56
2023-04-18T01:21:13.895Z,7.57
2023-04-18T01:22:13.890Z,7.50
2023-04-18T01:23:13.857Z,7.45
2023-04-18T01:24:14.059Z,7.40
2023-04-18T01:25:13.834Z,7.42
2023-04-18T01:26:13.904Z,7.42
2023-04-18T01:27:13.881Z,7.42
2023-04-18T01:28:13.840Z,7.42
2023-04-18T01:29:13.804Z,7.42
2023-04-18T01:30:13.819Z,7.40
2023-04-18T01:31:13.824Z,7.40
2023-04-18T01:32:13.813Z,7.42
2023-04-18T01:33:13.755Z,7.39
2023-04-18T01:34:13.948Z,7.38
2023-04-18T01:35:13.736Z,7.39
2023-04-18T01:36:13.742Z,7.32
2023-04-18T01:37:13.720Z,7.32
2023-04-18T01:38:13.751Z,7.24
2023-04-18T01:39:13.718Z,7.15
2023-04-18T01:40:13.709Z,7.14
2023-04-18T01:41:13.670Z,7.11
2023-04-18T01:42:13.689Z,7.15
2023-04-18T01:43:13.672Z,7.07
2023-04-18T01:44:13.948Z,7.03
2023-04-18T01:45:13.653Z,7.03
2023-04-18T01:46:13.676Z,6.93
2023-04-18T01:47:13.604Z,6.95
2023-04-18T01:48:13.634Z,6.93
2023-04-18T01:49:13.618Z,6.89
2023-04-18T01:50:13.645Z,6.95
2023-04-18T01:51:13.576Z,7.03
2023-04-18T01:52:13.577Z,7.13
2023-04-18T01:53:13.550Z,7.14
2023-04-18T01:54:13.843Z,7.15
2023-04-18T01:55:13.522Z,7.18
2023-04-18T01:56:13.545Z,7.15
2023-04-18T01:57:13.531Z,7.14
2023-04-18T01:58:13.511Z,7.17
2023-04-18T01:59:13.482Z,7.13
2023-04-18T02:00:13.517Z,7.07
2023-04-18T02:01:13.529Z,7.11
2023-04-18T02:02:13.573Z,7.11
2023-04-18T02:03:13.639Z,7.13
2023-04-18T02:04:13.780Z,7.11
2023-04-18T02:05:13.452Z,7.10
2023-04-18T02:06:13.441Z,7.06
2023-04-18T02:07:13.395Z,7.05
2023-04-18T02:08:13.412Z,7.02
2023-04-18T02:09:13.387Z,6.95
2023-04-18T02:10:13.406Z,6.92
2023-04-18T02:11:13.365Z,6.95
2023-04-18T02:12:13.374Z,6.87
2023-04-18T02:13:13.339Z,6.88
2023-04-18T02:14:13.463Z,6.89
2023-04-18T02:15:13.322Z,6.85
2023-04-18T02:16:13.389Z,6.92
2023-04-18T02:17:13.298Z,6.96
2023-04-18T02:18:13.321Z,6.89
2023-04-18T02:19:13.277Z,6.89
2023-04-18T02:20:13.337Z,6.88
2023-04-18T02:21:13.275Z,6.87
2023-04-18T02:22:13.283Z,6.79
2023-04-18T02:23:13.231Z,6.85
2023-04-18T02:24:13.484Z,6.84
2023-04-18T02:25:13.235Z,6.82
2023-04-18T02:26:13.233Z,6.85
2023-04-18T02:27:13.214Z,6.87
2023-04-18T02:28:13.246Z,6.93
2023-04-18T02:29:13.169Z,6.96
2023-04-18T02:30:13.187Z,7.00
2023-04-18T02:31:13.149Z,7.05
2023-04-18T02:32:13.242Z,7.07
2023-04-18T02:33:13.149Z,7.11
2023-04-18T02:34:13.471Z,7.14
2023-04-18T02:35:13.107Z,7.15
2023-04-18T02:36:13.119Z,7.18
2023-04-18T02:37:13.099Z,7.18
2023-04-18T02:38:13.124Z,7.24
2023-04-18T02:39:13.068Z,7.28
2023-04-18T02:40:13.084Z,7.25
2023-04-18T02:41:13.056Z,7.24
2023-04-18T02:42:13.070Z,7.23
2023-04-18T02:43:13.028Z,7.20
2023-04-18T02:44:13.242Z,7.23
2023-04-18T02:45:13.015Z,7.15
2023-04-18T02:46:13.052Z,7.05
2023-04-18T02:47:13.013Z,7.07
2023-04-18T02:48:13.010Z,7.06
2023-04-18T02:49:13.015Z,7.06
2023-04-18T02:50:12.968Z,7.07
2023-04-18T02:51:12.971Z,7.02
2023-04-18T02:52:12.942Z,7.03
2023-04-18T02:53:12.955Z,7.02
2023-04-18T02:54:13.245Z,7.07
2023-04-18T02:55:12.945Z,7.11
2023-04-18T02:56:12.917Z,7.10
2023-04-18T02:57:12.905Z,7.07
2023-04-18T02:58:12.866Z,7.05
2023-04-18T02:59:12.903Z,7.06
2023-04-18T03:00:12.887Z,7.13
2023-04-18T03:01:12.901Z,7.13
2023-04-18T03:02:12.859Z,7.17
2023-04-18T03:03:12.966Z,7.17
2023-04-18T03:04:13.036Z,7.07
2023-04-18T03:05:12.921Z,7.07
2023-04-18T03:06:12.800Z,7.07
2023-04-18T03:07:12.825Z,7.06
2023-04-18T03:08:12.769Z,7.10
2023-04-18T03:09:12.800Z,7.11
2023-04-18T03:10:12.754Z,7.07
2023-04-18T03:11:12.799Z,7.10
2023-04-18T03:12:12.753Z,7.11
2023-04-18T03:13:12.739Z,7.13
2023-04-18T03:14:12.902Z,7.15
2023-04-18T03:15:12.732Z,7.13
2023-04-18T03:16:12.792Z,7.17
2023-04-18T03:17:12.713Z,7.18
2023-04-18T03:18:12.665Z,7.21
2023-04-18T03:19:12.752Z,7.21
2023-04-18T03:20:12.681Z,7.20
2023-04-18T03:21:12.631Z,7.21
2023-04-18T03:22:12.672Z,7.18
2023-04-18T03:23:12.628Z,7.18
2023-04-18T03:24:12.667Z,7.18
2023-04-18T03:25:12.584Z,7.28
2023-04-18T03:26:12.622Z,7.35
2023-04-18T03:27:12.563Z,7.38
2023-04-18T03:28:12.604Z,7.35
2023-04-18T03:29:12.570Z,7.33
2023-04-18T03:30:12.563Z,7.36
2023-04-18T03:31:12.549Z,7.38
2023-04-18T03:32:12.535Z,7.36
2023-04-18T03:33:12.531Z,7.38
2023-04-18T03:34:12.734Z,7.42
2023-04-18T03:35:12.493Z,7.43
2023-04-18T03:36:12.501Z,7.42
2023-04-18T03:37:12.481Z,7.42
2023-04-18T03:38:12.477Z,7.42
2023-04-18T03:39:12.460Z,7.40
2023-04-18T03:40:12.457Z,7.42
2023-04-18T03:41:12.440Z,7.45
2023-04-18T03:42:12.462Z,7.43
2023-04-18T03:43:12.404Z,7.42
2023-04-18T03:44:12.633Z,7.47
2023-04-18T03:45:12.431Z,7.47
2023-04-18T03:46:12.416Z,7.50
2023-04-18T03:47:12.356Z,7.47
2023-04-18T03:48:12.375Z,7.53
2023-04-18T03:49:12.348Z,7.51
2023-04-18T03:50:12.382Z,7.53
2023-04-18T03:51:12.319Z,7.53
2023-04-18T03:52:12.344Z,7.50
2023-04-18T03:53:12.296Z,7.50
2023-04-18T03:54:12.631Z,7.51
2023-04-18T03:55:12.295Z,7.51
2023-04-18T03:56:12.289Z,7.50
2023-04-18T03:57:12.261Z,7.51
2023-04-18T03:58:12.271Z,7.54
2023-04-18T03:59:12.259Z,7.53
2023-04-18T04:00:12.258Z,7.50
2023-04-18T04:01:12.231Z,7.43
2023-04-18T04:02:12.288Z,7.42
2023-04-18T04:03:12.393Z,7.47
2023-04-18T04:04:12.472Z,7.42
2023-04-18T04:05:12.229Z,7.43
2023-04-18T04:06:12.233Z,7.42
2023-04-18T04:07:12.173Z,7.38
2023-04-18T04:08:12.166Z,7.33
2023-04-18T04:09:12.156Z,7.40
2023-04-18T04:10:12.164Z,7.39
2023-04-18T04:11:12.119Z,7.33
2023-04-18T04:12:12.143Z,7.39
2023-04-18T04:13:12.105Z,7.40
2023-04-18T04:14:12.375Z,7.39
2023-04-18T04:15:12.079Z,7.42
2023-04-18T04:16:12.143Z,7.48
2023-04-18T04:17:12.085Z,7.45
2023-04-18T04:18:12.086Z,7.40
2023-04-18T04:19:12.961Z,7.42
2023-04-18T04:20:12.064Z,7.43
2023-04-18T04:21:12.026Z,7.45
2023-04-18T04:22:12.095Z,7.51
2023-04-18T04:23:12.029Z,7.51
2023-04-18T04:24:12.188Z,7.45
2023-04-18T04:25:12.016Z,7.40
2023-04-18T04:26:11.982Z,7.42
2023-04-18T04:27:12.028Z,7.43
2023-04-18T04:28:11.997Z,7.43
2023-04-18T04:29:11.942Z,7.51
2023-04-18T04:30:13.335Z,7.50
2023-04-18T04:31:11.920Z,7.50
2023-04-18T04:32:12.019Z,7.51
2023-04-18T04:33:11.909Z,7.53
2023-04-18T04:34:12.063Z,7.57
2023-04-18T04:35:11.873Z,7.58
2023-04-18T04:36:11.905Z,7.57
2023-04-18T04:37:11.849Z,7.57
2023-04-18T04:38:11.880Z,7.61
2023-04-18T04:39:11.863Z,7.60
2023-04-18T04:40:11.858Z,7.58
2023-04-18T04:41:11.839Z,7.61
2023-04-18T04:42:11.814Z,7.60
2023-04-18T04:43:11.814Z,7.61
2023-04-18T04:44:12.070Z,7.56
2023-04-18T04:45:11.782Z,7.54
2023-04-18T04:46:11.814Z,7.56
2023-04-18T04:47:11.745Z,7.50
2023-04-18T04:48:11.753Z,7.51
2023-04-18T04:49:11.726Z,7.54
2023-04-18T04:50:11.744Z,7.54
2023-04-18T04:51:11.703Z,7.56
2023-04-18T04:52:11.759Z,7.54
2023-04-18T04:53:11.701Z,7.58
2023-04-18T04:54:11.897Z,7.53
2023-04-18T04:55:11.665Z,7.56
2023-04-18T04:56:11.680Z,7.60
2023-04-18T04:57:11.642Z,7.66
2023-04-18T04:58:11.646Z,7.61
2023-04-18T04:59:11.625Z,7.66
2023-04-18T05:00:11.627Z,7.69
2023-04-18T05:01:11.621Z,7.69
2023-04-18T05:02:11.703Z,7.67
2023-04-18T05:03:11.734Z,7.63
2023-04-18T05:04:11.854Z,7.63
2023-04-18T05:05:11.560Z,7.66
2023-04-18T05:06:11.570Z,7.66
2023-04-18T05:07:11.551Z,7.69
2023-04-18T05:08:11.550Z,7.70
2023-04-18T05:09:11.530Z,7.76
2023-04-18T05:10:11.531Z,7.76
2023-04-18T05:11:11.495Z,7.76
2023-04-18T05:12:11.562Z,7.75
2023-04-18T05:13:11.468Z,7.72
2023-04-18T05:14:11.627Z,7.75
2023-04-18T05:15:11.453Z,7.72
2023-04-18T05:16:11.503Z,7.75
2023-04-18T05:17:11.427Z,7.75
2023-04-18T05:18:11.468Z,7.76
2023-04-18T05:19:11.409Z,7.76
2023-04-18T05:20:11.445Z,7.79
2023-04-18T05:21:11.395Z,7.77
2023-04-18T05:22:11.401Z,7.73
2023-04-18T05:23:11.389Z,7.73
2023-04-18T05:24:11.377Z,7.69
2023-04-18T05:25:11.382Z,7.63
2023-04-18T05:26:11.381Z,7.60
2023-04-18T05:27:11.334Z,7.58
2023-04-18T05:28:11.343Z,7.58
2023-04-18T05:29:11.321Z,7.60
2023-04-18T05:30:11.318Z,7.66
2023-04-18T05:31:11.335Z,7.69
2023-04-18T05:32:11.298Z,7.75
2023-04-18T05:33:11.260Z,7.76
2023-04-18T05:34:11.465Z,7.77
2023-04-18T05:35:11.253Z,7.83
2023-04-18T05:36:11.260Z,7.83
2023-04-18T05:37:11.266Z,7.83
2023-04-18T05:38:11.263Z,7.79
2023-04-18T05:39:11.202Z,7.77
2023-04-18T05:40:11.234Z,7.83
2023-04-18T05:41:11.235Z,7.80
2023-04-18T05:42:11.197Z,7.79
2023-04-18T05:43:11.176Z,7.80
2023-04-18T05:44:11.208Z,7.85
2023-04-18T05:45:11.156Z,7.85
2023-04-18T05:46:11.168Z,7.85
2023-04-18T05:47:11.120Z,7.90
2023-04-18T05:48:11.225Z,7.87
2023-04-18T05:49:11.144Z,7.90
2023-04-18T05:50:11.144Z,7.91
2023-04-18T05:51:11.594Z,7.90
2023-04-18T05:52:11.093Z,7.94
2023-04-18T05:53:11.074Z,7.97
2023-04-18T05:54:11.140Z,7.95
2023-04-18T05:55:11.053Z,7.98
2023-04-18T05:56:11.073Z,7.98
2023-04-18T05:57:11.036Z,8.00
2023-04-18T05:58:11.035Z,7.98
2023-04-18T05:59:11.017Z,8.00
2023-04-18T06:00:11.013Z,8.01
2023-04-18T06:01:11.007Z,8.05
2023-04-18T06:02:11.082Z,8.08
2023-04-18T06:03:11.543Z,8.09
2023-04-18T06:04:11.155Z,8.12
2023-04-18T06:05:11.139Z,8.10
2023-04-18T06:06:10.952Z,8.10
2023-04-18T06:07:10.982Z,8.09
2023-04-18T06:08:10.951Z,8.06
2023-04-18T06:09:10.903Z,8.03
2023-04-18T06:10:10.919Z,8.05
2023-04-18T06:11:10.890Z,8.08
2023-04-18T06:12:10.909Z,8.08
2023-04-18T06:13:10.882Z,8.06
2023-04-18T06:14:10.863Z,8.10
2023-04-18T06:15:10.829Z,8.09
2023-04-18T06:16:10.883Z,8.10
2023-04-18T06:17:10.818Z,8.05
2023-04-18T06:18:10.844Z,7.98
2023-04-18T06:19:10.794Z,7.95
2023-04-18T06:20:10.855Z,7.95
2023-04-18T06:21:11.179Z,8.03
2023-04-18T06:22:10.789Z,8.00
2023-04-18T06:23:10.776Z,8.03
2023-04-18T06:24:10.768Z,8.01
2023-04-18T06:25:10.746Z,8.01
2023-04-18T06:26:10.736Z,8.05
2023-04-18T06:27:20.434Z,8.06
2023-04-18T06:28:10.764Z,8.09
2023-04-18T06:29:10.714Z,8.09
2023-04-18T06:30:10.713Z,8.06
2023-04-18T06:31:10.690Z,8.01
2023-04-18T06:32:10.703Z,7.95
2023-04-18T06:33:10.668Z,7.95
2023-04-18T06:34:10.674Z,7.98
2023-04-18T06:35:10.631Z,8.09
2023-04-18T06:36:10.680Z,8.16
2023-04-18T06:37:10.613Z,8.13
2023-04-18T06:38:10.625Z,8.12
2023-04-18T06:39:10.589Z,8.10
2023-04-18T06:40:10.618Z,8.13
2023-04-18T06:41:10.568Z,8.19
2023-04-18T06:42:10.586Z,8.24
2023-04-18T06:43:10.540Z,8.26
2023-04-18T06:44:10.572Z,8.27
2023-04-18T06:45:10.561Z,8.30
2023-04-18T06:46:10.549Z,8.31
2023-04-18T06:47:10.503Z,8.34
2023-04-18T06:48:10.610Z,8.37
2023-04-18T06:49:10.494Z,8.36
2023-04-18T06:50:10.537Z,8.37
2023-04-18T06:51:10.468Z,8.37
2023-04-18T06:52:10.478Z,8.42
2023-04-18T06:53:10.452Z,8.45
2023-04-18T06:54:10.448Z,8.42
2023-04-18T06:55:10.428Z,8.42
2023-04-18T06:56:10.438Z,8.46
2023-04-18T06:57:10.404Z,8.44
2023-04-18T06:58:10.455Z,8.36
2023-04-18T06:59:10.376Z,8.42
2023-04-18T07:00:10.392Z,8.46
2023-04-18T07:01:10.435Z,8.48
2023-04-18T07:02:10.377Z,8.42
2023-04-18T07:03:11.374Z,8.46
2023-04-18T07:04:10.494Z,8.51
2023-04-18T07:05:10.346Z,8.58
2023-04-18T07:06:10.316Z,8.58
2023-04-18T07:07:10.324Z,8.58
2023-04-18T07:08:10.286Z,8.60
2023-04-18T07:09:10.293Z,8.67
2023-04-18T07:10:10.259Z,8.56
2023-04-18T07:11:10.278Z,8.55
2023-04-18T07:12:10.252Z,8.55
2023-04-18T07:13:10.249Z,8.64
2023-04-18T07:14:10.214Z,8.64
2023-04-18T07:15:10.232Z,8.64
2023-04-18T07:16:10.225Z,8.66
2023-04-18T07:17:10.304Z,8.70
2023-04-18T07:18:10.201Z,8.73
2023-04-18T07:19:10.232Z,8.76
2023-04-18T07:20:11.247Z,8.82
2023-04-18T07:21:10.185Z,8.85
2023-04-18T07:22:10.132Z,8.91
2023-04-18T07:23:10.178Z,8.95
2023-04-18T07:24:10.126Z,8.94
2023-04-18T07:25:10.137Z,8.91
2023-04-18T07:26:10.100Z,8.97
2023-04-18T07:27:10.101Z,9.04
2023-04-18T07:28:10.082Z,9.06
2023-04-18T07:29:10.091Z,9.10
2023-04-18T07:30:10.061Z,9.14
2023-04-18T07:31:10.085Z,9.19
2023-04-18T07:32:10.036Z,9.21
2023-04-18T07:33:10.046Z,9.23
2023-04-18T07:34:10.070Z,9.25
2023-04-18T07:35:10.033Z,9.23
2023-04-18T07:36:10.001Z,9.18
2023-04-18T07:37:10.024Z,9.14
2023-04-18T07:38:09.985Z,9.08
2023-04-18T07:39:10.020Z,9.04
2023-04-18T07:40:09.971Z,8.95
2023-04-18T07:41:09.963Z,8.91
2023-04-18T07:42:09.940Z,8.97
2023-04-18T07:43:09.931Z,8.99
2023-04-18T07:44:09.904Z,8.97
2023-04-18T07:45:09.977Z,8.97
2023-04-18T07:46:09.921Z,9.02
2023-04-18T07:47:09.998Z,8.97
2023-04-18T07:48:09.904Z,8.95
2023-04-18T07:49:09.880Z,8.99
2023-04-18T07:50:09.841Z,8.99
2023-04-18T07:51:09.871Z,8.94
2023-04-18T07:52:09.821Z,9.02
2023-04-18T07:53:09.838Z,9.03
2023-04-18T07:54:09.806Z,9.02
2023-04-18T07:55:09.828Z,8.99
2023-04-18T07:56:09.801Z,8.97
2023-04-18T07:57:09.793Z,8.95
2023-04-18T07:58:09.760Z,8.92
2023-04-18T07:59:09.777Z,8.89
2023-04-18T08:00:09.802Z,8.82
2023-04-18T08:01:09.763Z,8.76
2023-04-18T08:02:09.803Z,8.76
2023-04-18T08:03:09.891Z,8.74
2023-04-18T08:04:09.912Z,8.74
2023-04-18T08:05:09.871Z,8.82
2023-04-18T08:06:09.676Z,8.87
2023-04-18T08:07:09.731Z,8.87
2023-04-18T08:08:09.656Z,8.89
2023-04-18T08:09:09.668Z,8.87
2023-04-18T08:10:09.639Z,8.88
2023-04-18T08:11:09.680Z,8.92
2023-04-18T08:12:09.614Z,8.91
2023-04-18T08:13:09.678Z,8.97
2023-04-18T08:14:09.606Z,9.06
2023-04-18T08:15:09.624Z,9.16
2023-04-18T08:16:09.622Z,9.25
2023-04-18T08:17:09.586Z,9.25
2023-04-18T08:18:09.586Z,9.32
2023-04-18T08:19:09.577Z,9.47
2023-04-18T08:20:09.545Z,9.55
2023-04-18T08:21:09.546Z,9.59
2023-04-18T08:22:09.507Z,9.59
2023-04-18T08:23:12.170Z,9.64
2023-04-18T08:24:09.513Z,9.62
2023-04-18T08:25:09.515Z,9.66
2023-04-18T08:26:09.465Z,9.76
2023-04-18T08:27:09.478Z,9.82
2023-04-18T08:28:09.474Z,9.92
2023-04-18T08:29:09.493Z,10.04
2023-04-18T08:30:09.433Z,10.07
2023-04-18T08:31:09.473Z,10.09
2023-04-18T08:32:09.466Z,10.09
2023-04-18T08:33:09.485Z,10.07
2023-04-18T08:34:09.383Z,10.07
2023-04-18T08:35:09.403Z,10.07
2023-04-18T08:36:09.405Z,10.09
2023-04-18T08:37:09.378Z,10.17
2023-04-18T08:38:09.375Z,10.17
2023-04-18T08:39:09.352Z,10.13
2023-04-18T08:40:09.393Z,10.09
2023-04-18T08:41:09.326Z,10.02
2023-04-18T08:42:09.301Z,9.99
2023-04-18T08:43:09.394Z,9.89
2023-04-18T08:44:09.305Z,9.89
2023-04-18T08:45:09.323Z,9.99
2023-04-18T08:46:09.330Z,10.04
2023-04-18T08:47:09.275Z,10.09
2023-04-18T08:48:09.284Z,10.20
2023-04-18T08:49:10.738Z,10.28
2023-04-18T08:50:09.224Z,10.33
2023-04-18T08:51:09.245Z,10.38
2023-04-18T08:52:09.192Z,10.40
2023-04-18T08:53:09.220Z,10.44
2023-04-18T08:54:09.165Z,10.44
2023-04-18T08:55:09.189Z,10.42
2023-04-18T08:56:09.179Z,10.53
2023-04-18T08:57:09.175Z,10.63
2023-04-18T08:58:09.137Z,10.74
2023-04-18T08:59:09.144Z,10.81
2023-04-18T09:00:09.116Z,10.89
2023-04-18T09:01:09.172Z,10.89
2023-04-18T09:02:09.223Z,10.89
2023-04-18T09:03:09.164Z,10.93
2023-04-18T09:04:09.121Z,10.94
2023-04-18T09:05:09.078Z,10.89
2023-04-18T09:06:09.053Z,10.76
2023-04-18T09:07:09.063Z,10.64
2023-04-18T09:08:09.034Z,10.63
2023-04-18T09:09:09.040Z,10.68
2023-04-18T09:10:09.002Z,10.72
2023-04-18T09:11:09.020Z,10.71
2023-04-18T09:12:09.000Z,10.78
2023-04-18T09:13:09.009Z,10.79
2023-04-18T09:14:09.009Z,10.81
2023-04-18T09:15:09.009Z,10.89
2023-04-18T09:16:08.970Z,10.97
2023-04-18T09:17:08.968Z,11.05
2023-04-18T09:18:08.991Z,11.15
2023-04-18T09:19:08.944Z,11.25
2023-04-18T09:20:08.914Z,11.33
2023-04-18T09:21:08.924Z,11.36
2023-04-18T09:22:08.875Z,11.41
2023-04-18T09:23:08.891Z,11.44
2023-04-18T09:24:08.875Z,11.51
2023-04-18T09:25:08.869Z,11.45
2023-04-18T09:26:08.844Z,11.50
2023-04-18T09:27:08.923Z,11.59
2023-04-18T09:28:08.826Z,11.60
2023-04-18T09:29:08.827Z,11.65
2023-04-18T09:30:08.819Z,11.73
2023-04-18T09:31:08.831Z,11.69
2023-04-18T09:32:08.785Z,11.68
2023-04-18T09:33:08.811Z,11.65
2023-04-18T09:34:08.756Z,11.68
2023-04-18T09:35:08.823Z,11.69
2023-04-18T09:36:08.737Z,11.69
2023-04-18T09:37:08.849Z,11.68
2023-04-18T09:38:08.738Z,11.60
2023-04-18T09:39:08.741Z,11.60
2023-04-18T09:40:08.692Z,11.52
2023-04-18T09:41:08.772Z,11.54
2023-04-18T09:42:08.692Z,11.59
2023-04-18T09:43:08.709Z,11.54
2023-04-18T09:44:09.715Z,11.44
2023-04-18T09:45:08.668Z,11.40
2023-04-18T09:46:08.753Z,11.29
2023-04-18T09:47:08.732Z,11.22
2023-04-18T09:48:08.653Z,11.26
2023-04-18T09:49:10.418Z,11.23
2023-04-18T09:50:08.635Z,11.27
2023-04-18T09:51:08.600Z,11.35
2023-04-18T09:52:08.631Z,11.36
2023-04-18T09:53:08.596Z,11.47
2023-04-18T09:54:08.548Z,11.51
2023-04-18T09:55:08.572Z,11.62
2023-04-18T09:56:08.529Z,11.69
2023-04-18T09:57:08.560Z,11.66
2023-04-18T09:58:08.510Z,11.66
2023-04-18T09:59:08.511Z,11.69
2023-04-18T10:00:08.487Z,11.81
2023-04-18T10:01:08.604Z,11.94
2023-04-18T10:02:08.587Z,11.91
2023-04-18T10:03:08.613Z,11.99
2023-04-18T10:04:08.529Z,11.80
2023-04-18T10:05:08.500Z,11.70
2023-04-18T10:06:08.448Z,11.63
2023-04-18T10:07:08.432Z,11.63
2023-04-18T10:08:08.497Z,11.65
2023-04-18T10:09:08.433Z,11.72
2023-04-18T10:10:08.376Z,11.83
2023-04-18T10:11:08.383Z,11.97
2023-04-18T10:12:08.365Z,11.97
2023-04-18T10:13:08.371Z,12.06
2023-04-18T10:14:08.337Z,12.06
2023-04-18T10:15:08.357Z,11.99
2023-04-18T10:16:08.410Z,11.95
2023-04-18T10:17:08.343Z,11.97
2023-04-18T10:18:08.314Z,12.02
2023-04-18T10:19:08.312Z,12.12
2023-04-18T10:20:08.275Z,12.12
2023-04-18T10:21:08.276Z,12.18
2023-04-18T10:22:08.245Z,12.12
2023-04-18T10:23:08.259Z,12.09
2023-04-18T10:24:08.267Z,12.12
2023-04-18T10:25:08.243Z,12.12
2023-04-18T10:26:08.217Z,12.12
2023-04-18T10:27:08.218Z,12.17
2023-04-18T10:28:08.203Z,12.18
2023-04-18T10:29:08.198Z,12.09
2023-04-18T10:30:09.224Z,12.12
2023-04-18T10:31:08.228Z,12.22
2023-04-18T10:32:08.152Z,12.32
2023-04-18T10:33:10.603Z,12.35
2023-04-18T10:34:08.132Z,12.37
2023-04-18T10:35:08.182Z,12.37
2023-04-18T10:36:08.109Z,12.40
2023-04-18T10:37:08.141Z,12.42
2023-04-18T10:38:08.079Z,12.50
2023-04-18T10:39:08.092Z,12.46
2023-04-18T10:40:08.081Z,12.49
2023-04-18T10:41:08.086Z,12.53
2023-04-18T10:42:08.043Z,12.64
2023-04-18T10:43:08.049Z,12.72
2023-04-18T10:44:08.680Z,12.75
2023-04-18T10:45:08.035Z,12.70
2023-04-18T10:46:14.385Z,12.76
2023-04-18T10:47:08.059Z,12.72
2023-04-18T10:48:08.025Z,12.68
2023-04-18T10:49:07.989Z,12.68
2023-04-18T10:50:07.993Z,12.83
2023-04-18T10:51:08.011Z,12.86
2023-04-18T10:52:07.963Z,12.91
2023-04-18T10:53:07.949Z,13.04
2023-04-18T10:54:07.911Z,13.09
2023-04-18T10:55:07.947Z,13.33
2023-04-18T10:56:07.896Z,13.37
2023-04-18T10:57:07.914Z,13.25
2023-04-18T10:58:07.904Z,13.30
2023-04-18T10:59:07.889Z,13.27
2023-04-18T11:00:07.850Z,13.23
2023-04-18T11:01:07.879Z,13.18
2023-04-18T11:02:07.878Z,13.04
2023-04-18T11:03:08.074Z,12.95
2023-04-18T11:04:07.870Z,13.03
2023-04-18T11:05:07.821Z,13.00
2023-04-18T11:06:07.784Z,13.15
2023-04-18T11:07:07.839Z,13.23
2023-04-18T11:08:07.780Z,13.37
2023-04-18T11:09:07.778Z,13.42
2023-04-18T11:10:07.737Z,13.41
2023-04-18T11:11:07.756Z,13.47
2023-04-18T11:12:07.775Z,13.46
2023-04-18T11:13:07.767Z,13.47
2023-04-18T11:14:07.747Z,13.49
2023-04-18T11:15:07.720Z,13.68
2023-04-18T11:16:07.744Z,13.63
2023-04-18T11:17:07.699Z,13.49
2023-04-18T11:18:07.771Z,13.44
2023-04-18T11:19:07.686Z,13.25
2023-04-18T11:20:07.661Z,13.20
2023-04-18T11:21:07.642Z,13.19
2023-04-18T11:22:07.639Z,13.28
2023-04-18T11:23:07.613Z,13.38
2023-04-18T11:24:07.637Z,13.68
2023-04-18T11:25:07.595Z,13.70
2023-04-18T11:26:07.597Z,13.92
2023-04-18T11:27:07.568Z,14.05
2023-04-18T11:28:07.625Z,14.11
2023-04-18T11:29:07.552Z,14.33
2023-04-18T11:30:07.606Z,14.69
2023-04-18T11:31:07.553Z,14.92
2023-04-18T11:32:07.646Z,14.91
2023-04-18T11:33:07.691Z,14.84
2023-04-18T11:34:07.512Z,14.77
2023-04-18T11:35:07.503Z,14.59
2023-04-18T11:36:07.503Z,14.51
2023-04-18T11:37:07.483Z,14.29
2023-04-18T11:38:07.474Z,13.93
2023-04-18T11:39:07.443Z,13.87
2023-04-18T11:40:07.467Z,13.68
2023-04-18T11:41:07.443Z,13.56
2023-04-18T11:42:07.437Z,13.41
2023-04-18T11:43:07.473Z,13.33
2023-04-18T11:44:08.137Z,13.25
2023-04-18T11:45:07.393Z,13.33
2023-04-18T11:46:07.474Z,13.35
2023-04-18T11:47:07.376Z,13.47
2023-04-18T11:48:07.402Z,13.49
2023-04-18T11:49:07.347Z,13.50
2023-04-18T11:50:07.361Z,13.65
2023-04-18T11:51:07.379Z,13.86
2023-04-18T11:52:07.362Z,14.07
2023-04-18T11:53:07.288Z,14.22
2023-04-18T11:54:07.302Z,14.28
2023-04-18T11:55:07.276Z,14.32
2023-04-18T11:56:07.296Z,14.41
2023-04-18T11:57:07.247Z,14.48
2023-04-18T11:58:07.294Z,14.65
2023-04-18T11:59:07.232Z,14.86
2023-04-18T12:00:07.268Z,14.88
2023-04-18T12:01:07.216Z,14.88
2023-04-18T12:02:16.105Z,14.97
2023-04-18T12:03:07.327Z,15.04
2023-04-18T12:04:07.500Z,14.96
2023-04-18T12:05:07.479Z,14.89
2023-04-18T12:06:07.259Z,14.73
2023-04-18T12:07:07.139Z,14.77
2023-04-18T12:08:07.155Z,14.79
2023-04-18T12:09:07.132Z,14.79
2023-04-18T12:10:07.180Z,14.50
2023-04-18T12:11:07.099Z,14.32
2023-04-18T12:12:07.114Z,14.40
2023-04-18T12:13:07.075Z,14.44
2023-04-18T12:14:07.126Z,14.55
2023-04-18T12:15:07.065Z,14.96
2023-04-18T12:16:07.122Z,15.46
2023-04-18T12:17:07.045Z,16.04
2023-04-18T12:18:07.081Z,16.43
2023-04-18T12:19:07.084Z,16.94
2023-04-18T12:20:07.041Z,17.02
2023-04-18T12:21:06.989Z,16.81
2023-04-18T12:22:07.013Z,16.60
2023-04-18T12:23:06.968Z,16.15
2023-04-18T12:24:07.028Z,15.88
2023-04-18T12:25:06.986Z,15.46
2023-04-18T12:26:06.974Z,15.28
2023-04-18T12:27:06.931Z,15.21
2023-04-18T12:28:06.946Z,15.07
2023-04-18T12:29:06.910Z,15.02
2023-04-18T12:30:06.931Z,15.02
2023-04-18T12:31:06.918Z,14.99
2023-04-18T12:32:06.922Z,14.86
2023-04-18T12:33:06.963Z,14.66
2023-04-18T12:34:06.892Z,14.53
2023-04-18T12:35:06.840Z,14.48
2023-04-18T12:36:06.873Z,14.47
2023-04-18T12:37:06.817Z,14.88
2023-04-18T12:38:06.834Z,15.36
2023-04-18T12:39:06.839Z,15.39
2023-04-18T12:40:06.814Z,16.09
2023-04-18T12:41:06.800Z,16.72
2023-04-18T12:42:06.819Z,17.26
2023-04-18T12:43:06.772Z,17.39
2023-04-18T12:44:06.781Z,17.12
2023-04-18T12:45:06.738Z,16.64
2023-04-18T12:46:06.781Z,16.43
2023-04-18T12:47:06.791Z,16.29
2023-04-18T12:48:06.840Z,16.16
2023-04-18T12:49:06.714Z,16.23
2023-04-18T12:50:06.717Z,16.28
2023-04-18T12:51:06.665Z,15.98
2023-04-18T12:52:06.702Z,15.75
2023-04-18T12:53:06.684Z,15.64
2023-04-18T12:54:06.667Z,15.43
2023-04-18T12:55:06.626Z,15.31
2023-04-18T12:56:06.654Z,15.17
2023-04-18T12:57:06.604Z,14.97
2023-04-18T12:58:06.655Z,14.86
2023-04-18T12:59:06.602Z,14.77
2023-04-18T13:00:06.601Z,14.63
2023-04-18T13:01:06.597Z,14.65
2023-04-18T13:02:06.675Z,14.55
2023-04-18T13:03:06.707Z,14.65
2023-04-18T13:04:12.219Z,14.82
2023-04-18T13:05:06.532Z,14.94
2023-04-18T13:06:06.538Z,15.06
2023-04-18T13:07:06.503Z,15.25
2023-04-18T13:08:16.216Z,15.33
2023-04-18T13:09:06.572Z,15.29